Time;durP1;ratioP1;P1;durP2;ratioP2;P2;SDS_P1;SDS_P2;PMS_P1;PMS_P2;Temp;Humidity;BMP_temperature;BMP_pressure;BME280_temperature;BME280_humidity;BME280_pressure;Samples;Min_cycle;Max_cycle;Signal;HPM_P1;HPM_P2
2021/12/04 00:02:06;;;;;;;0.68;0.50;;;;;;;;;;5052183;28;20033;-66
2021/12/04 00:04:38;;;;;;;1.50;0.77;;;;;;;;;;5051315;28;20036;-66
2021/12/04 00:07:05;;;;;;;0.50;0.40;;;;;;;;;;5052389;28;20032;-66
2021/12/04 00:09:32;;;;;;;1.52;0.75;;;;;;;;;;5051440;28;20496;-66
2021/12/04 00:12:02;;;;;;;1.05;0.50;;;;;;;;;;5052210;28;20057;-67
2021/12/04 00:14:29;;;;;;;1.48;0.60;;;;;;;;;;5051547;28;20021;-66
2021/12/04 00:16:55;;;;;;;0.98;0.70;;;;;;;;;;5052339;28;20573;-67
2021/12/04 00:19:22;;;;;;;1.50;0.60;;;;;;;;;;5051406;28;20124;-67
2021/12/04 00:21:48;;;;;;;0.95;0.63;;;;;;;;;;5051935;28;20021;-67
2021/12/04 00:24:14;;;;;;;2.05;0.60;;;;;;;;;;5052003;28;20029;-67
2021/12/04 00:26:41;;;;;;;0.50;0.40;;;;;;;;;;5051406;28;20041;-67
2021/12/04 00:29:07;;;;;;;1.15;0.60;;;;;;;;;;5051978;28;20028;-67
2021/12/04 00:31:33;;;;;;;0.95;0.70;;;;;;;;;;5051315;28;20021;-67
2021/12/04 00:33:59;;;;;;;1.23;0.40;;;;;;;;;;5055773;28;20100;-66
2021/12/04 00:36:39;;;;;;;1.23;0.60;;;;;;;;;;5055078;28;20112;-66
2021/12/04 00:50:04;;;;;;;0.90;0.70;;;;;;;;;;5055501;28;20090;-66
2021/12/04 00:52:30;;;;;;;1.17;0.60;;;;;;;;;;5054926;28;20509;-67
2021/12/04 00:54:56;;;;;;;1.13;0.60;;;;;;;;;;5055244;28;20053;-67
2021/12/04 00:57:22;;;;;;;1.13;0.43;;;;;;;;;;5054424;28;20043;-67
2021/12/04 00:59:48;;;;;;;0.63;0.60;;;;;;;;;;5038176;28;20108;-67
2021/12/04 01:02:14;;;;;;;2.15;0.65;;;;;;;;;;5035769;28;20037;-67
2021/12/04 01:04:40;;;;;;;1.63;0.70;;;;;;;;;;5034903;28;20398;-67
2021/12/04 01:07:08;;;;;;;1.15;0.70;;;;;;;;;;5035222;28;20036;-66
2021/12/04 01:09:34;;;;;;;1.17;0.60;;;;;;;;;;5034632;28;20025;-67
2021/12/04 01:12:00;;;;;;;0.80;0.40;;;;;;;;;;5034933;28;20488;-67
2021/12/04 01:14:27;;;;;;;0.80;0.57;;;;;;;;;;5034934;28;20022;-67
2021/12/04 01:16:54;;;;;;;1.70;0.90;;;;;;;;;;5034707;28;20500;-67
2021/12/04 01:19:20;;;;;;;1.17;0.55;;;;;;;;;;5034493;28;20069;-66
2021/12/04 01:21:47;;;;;;;1.73;1.10;;;;;;;;;;5034913;28;20030;-66
2021/12/04 01:24:13;;;;;;;0.98;0.60;;;;;;;;;;5034934;28;20386;-67
2021/12/04 01:26:40;;;;;;;3.42;1.13;;;;;;;;;;5034646;28;20025;-66
2021/12/04 01:29:06;;;;;;;0.93;0.60;;;;;;;;;;5034675;28;20529;-67
2021/12/04 01:31:32;;;;;;;1.52;0.70;;;;;;;;;;5034282;28;20108;-66
2021/12/04 01:33:58;;;;;;;0.98;0.60;;;;;;;;;;5034855;28;20466;-66
2021/12/04 01:36:24;;;;;;;0.65;0.47;;;;;;;;;;5034036;28;20021;-66
2021/12/04 01:38:51;;;;;;;0.50;0.50;;;;;;;;;;5034685;28;20037;-66
2021/12/04 01:41:17;;;;;;;1.33;0.60;;;;;;;;;;5034329;28;20072;-67
2021/12/04 01:43:43;;;;;;;1.33;0.60;;;;;;;;;;5033680;28;20052;-66
2021/12/04 01:46:09;;;;;;;0.95;0.60;;;;;;;;;;5034421;28;20045;-67
2021/12/04 01:48:35;;;;;;;0.73;0.50;;;;;;;;;;5034050;28;20036;-66
2021/12/04 01:51:02;;;;;;;1.13;0.60;;;;;;;;;;5034341;28;20117;-66
2021/12/04 01:53:28;;;;;;;1.13;0.60;;;;;;;;;;5033936;28;20071;-67
2021/12/04 01:55:55;;;;;;;1.17;0.85;;;;;;;;;;5034376;28;20021;-66
2021/12/04 01:58:21;;;;;;;1.52;0.40;;;;;;;;;;5033781;28;20061;-66
2021/12/04 02:00:47;;;;;;;1.15;0.60;;;;;;;;;;5034201;28;20021;-67
2021/12/04 02:03:14;;;;;;;0.80;0.70;;;;;;;;;;5033991;28;20038;-67
2021/12/04 02:05:45;;;;;;;0.85;0.57;;;;;;;;;;5033666;28;20060;-67
2021/12/04 02:08:15;;;;;;;1.10;0.57;;;;;;;;;;5033766;28;20025;-67
2021/12/04 02:10:41;;;;;;;0.80;0.70;;;;;;;;;;5033578;28;20091;-67
2021/12/04 02:13:07;;;;;;;0.40;0.38;;;;;;;;;;5034080;28;20021;-67
2021/12/04 02:15:34;;;;;;;0.75;0.50;;;;;;;;;;5033129;28;20386;-67
2021/12/04 02:18:02;;;;;;;0.60;0.40;;;;;;;;;;5033705;28;20098;-67
2021/12/04 02:20:29;;;;;;;1.70;0.80;;;;;;;;;;5033326;28;20109;-67
2021/12/04 02:22:56;;;;;;;0.70;0.60;;;;;;;;;;5033699;28;20022;-67
2021/12/04 02:25:22;;;;;;;0.77;0.50;;;;;;;;;;5033207;28;20029;-66
2021/12/04 02:27:49;;;;;;;0.68;0.60;;;;;;;;;;5033799;28;20029;-67
2021/12/04 02:30:18;;;;;;;0.80;0.50;;;;;;;;;;5033772;28;20119;-67
2021/12/04 02:32:44;;;;;;;0.63;0.40;;;;;;;;;;5033153;28;20026;-67
2021/12/04 02:35:14;;;;;;;0.88;0.63;;;;;;;;;;5033341;28;20076;-63
2021/12/04 02:37:40;;;;;;;1.27;0.60;;;;;;;;;;5032675;28;20021;-66
2021/12/04 02:40:09;;;;;;;1.05;0.70;;;;;;;;;;5033548;28;20104;-66
2021/12/04 02:42:35;;;;;;;0.75;0.50;;;;;;;;;;5032962;28;20100;-66
2021/12/04 02:45:02;;;;;;;0.80;0.40;;;;;;;;;;5033340;28;20044;-67
2021/12/04 02:47:29;;;;;;;0.40;0.40;;;;;;;;;;5032497;28;20025;-67
2021/12/04 02:49:55;;;;;;;0.77;0.50;;;;;;;;;;5033432;28;20134;-67
2021/12/04 02:52:22;;;;;;;0.98;0.52;;;;;;;;;;5032623;28;20032;-60
2021/12/04 02:54:48;;;;;;;1.08;0.63;;;;;;;;;;5033224;28;20108;-67
2021/12/04 02:57:19;;;;;;;0.50;0.50;;;;;;;;;;5032320;28;20022;-66
2021/12/04 02:59:45;;;;;;;1.58;0.65;;;;;;;;;;5049301;28;20102;-67
2021/12/04 03:02:21;;;;;;;0.70;0.60;;;;;;;;;;5053028;28;20029;-67
2021/12/04 03:04:50;;;;;;;1.08;0.98;;;;;;;;;;5053241;28;20049;-67
2021/12/04 03:07:17;;;;;;;0.90;0.60;;;;;;;;;;5052811;28;20017;-67
2021/12/04 03:09:43;;;;;;;0.50;0.50;;;;;;;;;;5052112;28;20040;-67
2021/12/04 03:12:10;;;;;;;0.43;0.43;;;;;;;;;;5052875;28;20454;-66
2021/12/04 03:14:36;;;;;;;0.98;0.60;;;;;;;;;;5052271;28;20032;-67
2021/12/04 03:17:02;;;;;;;0.60;0.32;;;;;;;;;;5052792;28;20365;-66
2021/12/04 03:19:28;;;;;;;1.38;0.90;;;;;;;;;;5052091;28;20346;-65
2021/12/04 03:21:56;;;;;;;1.13;0.73;;;;;;;;;;5052576;28;20025;-67
2021/12/04 03:24:23;;;;;;;0.85;0.60;;;;;;;;;;5052512;28;20021;-67
2021/12/04 03:26:52;;;;;;;0.68;0.47;;;;;;;;;;5052698;28;20108;-67
2021/12/04 03:29:22;;;;;;;1.83;0.65;;;;;;;;;;5052537;28;20029;-67
2021/12/04 03:42:45;;;;;;;0.90;0.60;;;;;;;;;;5040535;28;20033;-67
2021/12/04 03:45:12;;;;;;;1.42;0.85;;;;;;;;;;5052336;28;20401;-67
2021/12/04 03:47:45;;;;;;;0.60;0.50;;;;;;;;;;5051727;28;20028;-67
2021/12/04 03:50:12;;;;;;;0.75;0.50;;;;;;;;;;5052435;28;20017;-67
2021/12/04 03:52:38;;;;;;;0.68;0.50;;;;;;;;;;5051770;28;20083;-64
2021/12/04 03:55:05;;;;;;;0.88;0.82;;;;;;;;;;5052137;28;20071;-67
2021/12/04 03:57:31;;;;;;;1.15;0.60;;;;;;;;;;5051651;28;20075;-67
2021/12/04 03:59:59;;;;;;;0.90;0.55;;;;;;;;;;5033241;28;20029;-64
2021/12/04 04:02:25;;;;;;;0.70;0.52;;;;;;;;;;5031790;28;20025;-67
2021/12/04 04:04:51;;;;;;;0.85;0.70;;;;;;;;;;5032268;28;20029;-67
2021/12/04 04:07:17;;;;;;;2.05;1.35;;;;;;;;;;5033875;28;20057;-67
2021/12/04 04:09:43;;;;;;;1.00;0.73;;;;;;;;;;5035553;28;20095;-67
2021/12/04 04:12:09;;;;;;;0.52;0.50;;;;;;;;;;5036668;28;20369;-67
2021/12/04 04:14:36;;;;;;;1.52;0.82;;;;;;;;;;5035586;28;20100;-67
2021/12/04 04:17:02;;;;;;;0.80;0.60;;;;;;;;;;5036335;28;20085;-67
2021/12/04 04:19:28;;;;;;;1.33;0.52;;;;;;;;;;5035559;28;20441;-67
2021/12/04 04:21:56;;;;;;;0.90;0.60;;;;;;;;;;5036238;28;20100;-67
2021/12/04 04:24:23;;;;;;;0.88;0.45;;;;;;;;;;5035914;28;20021;-67
2021/12/04 04:26:49;;;;;;;0.98;0.70;;;;;;;;;;5035879;28;20025;-67
2021/12/04 04:29:16;;;;;;;0.60;0.60;;;;;;;;;;5036095;28;20199;-68
2021/12/04 04:31:49;;;;;;;0.93;0.68;;;;;;;;;;5035138;28;20474;-67
2021/12/04 04:34:22;;;;;;;1.73;0.82;;;;;;;;;;5035927;28;20494;-67
2021/12/04 04:37:19;;;;;;;0.88;0.50;;;;;;;;;;5035317;28;20108;-67
2021/12/04 04:59:29;;;;;;;1.15;0.82;;;;;;;;;;5048200;28;20036;-66
2021/12/04 05:10:40;;;;;;;1.42;0.70;;;;;;;;;;5055166;28;20063;-67
2021/12/04 05:13:09;;;;;;;1.00;0.60;;;;;;;;;;5055398;28;20163;-67
2021/12/04 05:18:14;;;;;;;0.88;0.50;;;;;;;;;;5054893;28;20394;-67
2021/12/04 05:20:40;;;;;;;0.85;0.63;;;;;;;;;;5054320;28;20060;-67
2021/12/04 05:23:08;;;;;;;1.05;0.70;;;;;;;;;;5055195;28;20033;-67
2021/12/04 05:25:36;;;;;;;0.88;0.70;;;;;;;;;;5054190;28;20032;-67
2021/12/04 05:28:03;;;;;;;0.63;0.52;;;;;;;;;;5054847;28;20017;-62
2021/12/04 05:30:29;;;;;;;0.60;0.50;;;;;;;;;;5054266;28;20057;-66
2021/12/04 05:32:55;;;;;;;0.80;0.77;;;;;;;;;;5054599;28;20470;-67
2021/12/04 05:35:21;;;;;;;1.55;0.95;;;;;;;;;;5048444;28;20029;-67
2021/12/04 05:37:47;;;;;;;0.70;0.60;;;;;;;;;;5043824;28;20104;-64
2021/12/04 05:40:15;;;;;;;1.83;0.70;;;;;;;;;;5042633;28;20029;-64
2021/12/04 05:42:42;;;;;;;2.15;0.60;;;;;;;;;;5042189;28;20115;-67
2021/12/04 05:45:15;;;;;;;0.55;0.55;;;;;;;;;;5043902;28;20072;-67
2021/12/04 05:48:08;;;;;;;0.90;0.70;;;;;;;;;;5043320;28;20017;-63
2021/12/04 05:55:52;;;;;;;0.95;0.80;;;;;;;;;;5042358;28;20021;-67
2021/12/04 05:58:19;;;;;;;1.95;0.98;;;;;;;;;;5043616;28;20024;-67
2021/12/04 06:00:45;;;;;;;0.95;0.70;;;;;;;;;;5043206;28;20037;-66
2021/12/04 06:03:12;;;;;;;0.95;0.70;;;;;;;;;;5051419;28;20355;-66
2021/12/04 06:05:38;;;;;;;1.17;0.60;;;;;;;;;;5049987;28;20029;-66
2021/12/04 06:08:04;;;;;;;2.45;0.77;;;;;;;;;;5042711;28;20021;-68
2021/12/04 06:10:30;;;;;;;0.88;0.70;;;;;;;;;;5042111;28;20032;-66
2021/12/04 06:12:56;;;;;;;1.45;0.60;;;;;;;;;;5041514;28;20109;-68
2021/12/04 06:15:22;;;;;;;1.38;0.70;;;;;;;;;;5042733;28;20036;-69
2021/12/04 06:17:51;;;;;;;2.75;0.85;;;;;;;;;;5042931;28;20033;-72
2021/12/04 06:23:02;;;;;;;1.00;0.70;;;;;;;;;;5042378;28;20551;-70
2021/12/04 06:25:31;;;;;;;2.30;0.85;;;;;;;;;;5041051;28;20104;-66
2021/12/04 06:28:00;;;;;;;1.05;0.88;;;;;;;;;;5041610;28;20080;-61
2021/12/04 06:30:26;;;;;;;3.03;0.88;;;;;;;;;;5041563;28;20505;-72
2021/12/04 06:32:53;;;;;;;2.53;0.73;;;;;;;;;;5043553;28;20078;-75
2021/12/04 06:35:23;;;;;;;1.35;0.75;;;;;;;;;;5041917;28;20044;-72
2021/12/04 06:37:50;;;;;;;1.33;0.85;;;;;;;;;;5041062;28;20055;-69
2021/12/04 06:40:18;;;;;;;1.27;0.60;;;;;;;;;;5042413;28;20064;-64
2021/12/04 06:42:45;;;;;;;3.65;1.20;;;;;;;;;;5041593;28;20144;-70
2021/12/04 06:45:11;;;;;;;0.90;0.65;;;;;;;;;;5040643;28;20046;-67
2021/12/04 06:47:39;;;;;;;1.33;0.75;;;;;;;;;;5042093;28;20056;-67
2021/12/04 06:50:16;;;;;;;0.60;0.60;;;;;;;;;;5042616;28;20413;-67
2021/12/04 06:52:45;;;;;;;1.13;0.80;;;;;;;;;;5041423;28;20028;-59
2021/12/04 06:55:16;;;;;;;3.15;1.00;;;;;;;;;;5040974;28;20018;-60
2021/12/04 06:57:44;;;;;;;0.85;0.57;;;;;;;;;;5041300;28;20096;-65
2021/12/04 07:00:11;;;;;;;1.95;0.88;;;;;;;;;;5042760;28;20037;-61
2021/12/04 07:02:37;;;;;;;0.90;0.60;;;;;;;;;;5041871;28;20024;-60
2021/12/04 07:05:04;;;;;;;1.27;0.73;;;;;;;;;;5041528;28;20397;-65
2021/12/04 07:07:30;;;;;;;2.00;0.70;;;;;;;;;;5039937;28;20025;-66
2021/12/04 07:09:56;;;;;;;0.90;0.63;;;;;;;;;;5042848;28;20033;-61
2021/12/04 07:12:22;;;;;;;1.33;0.98;;;;;;;;;;5041911;28;20096;-63
2021/12/04 07:14:48;;;;;;;3.15;0.70;;;;;;;;;;5040060;28;20420;-69
2021/12/04 07:17:14;;;;;;;0.77;0.50;;;;;;;;;;5042515;28;20017;-65
2021/12/04 07:19:40;;;;;;;3.40;1.08;;;;;;;;;;5040378;28;20018;-63
2021/12/04 07:22:08;;;;;;;2.25;0.73;;;;;;;;;;5038575;28;20079;-68
2021/12/04 07:24:34;;;;;;;1.65;0.80;;;;;;;;;;5041774;28;20059;-65
2021/12/04 07:27:00;;;;;;;1.67;0.82;;;;;;;;;;5040574;28;20041;-68
2021/12/04 07:29:26;;;;;;;1.75;0.73;;;;;;;;;;5040730;28;20428;-67
2021/12/04 07:31:52;;;;;;;3.50;1.23;;;;;;;;;;5041652;28;20017;-75
2021/12/04 07:34:18;;;;;;;2.42;0.55;;;;;;;;;;5040679;28;20029;-67
2021/12/04 07:36:44;;;;;;;3.85;0.70;;;;;;;;;;5040290;28;20092;-67
2021/12/04 07:39:10;;;;;;;2.50;0.98;;;;;;;;;;5042097;28;20109;-68
2021/12/04 07:41:42;;;;;;;2.10;0.68;;;;;;;;;;5040928;28;20025;-67
2021/12/04 07:44:08;;;;;;;;;;;;;;;;;;5042242;28;20025;-67
2021/12/04 07:46:35;;;;;;;6.32;0.85;;;;;;;;;;5039392;28;20365;-65
2021/12/04 07:49:01;;;;;;;12.18;1.02;;;;;;;;;;5039168;28;20022;-66
2021/12/04 07:51:27;;;;;;;5.45;1.40;;;;;;;;;;5032020;28;20489;-69
2021/12/04 07:53:53;;;;;;;5.57;1.00;;;;;;;;;;5032732;28;20112;-69
2021/12/04 07:56:19;;;;;;;7.28;1.20;;;;;;;;;;5032039;28;20025;-68
2021/12/04 07:58:45;;;;;;;6.90;1.00;;;;;;;;;;5040232;28;20522;-65
2021/12/04 08:01:12;;;;;;;4.90;1.10;;;;;;;;;;5052155;28;20035;-66
2021/12/04 08:03:38;;;;;;;11.90;1.55;;;;;;;;;;5051573;28;20021;-63
2021/12/04 08:06:04;;;;;;;12.15;1.70;;;;;;;;;;5052210;28;20025;-65
2021/12/04 08:08:30;;;;;;;24.50;1.92;;;;;;;;;;5051564;28;20079;-64
2021/12/04 08:10:56;;;;;;;13.43;2.78;;;;;;;;;;5052238;28;20025;-63
2021/12/04 08:13:22;;;;;;;11.98;1.90;;;;;;;;;;5052066;28;20114;-60
2021/12/04 08:15:48;;;;;;;9.18;1.48;;;;;;;;;;5051408;28;20556;-66
2021/12/04 08:18:14;;;;;;;18.25;2.25;;;;;;;;;;5051763;28;20037;-61
2021/12/04 08:20:40;;;;;;;6.28;1.10;;;;;;;;;;5051407;28;20397;-63
2021/12/04 08:23:06;;;;;;;18.30;1.75;;;;;;;;;;5050709;28;20036;-66
2021/12/04 08:25:33;;;;;;;22.52;2.00;;;;;;;;;;5051662;28;20037;-67
2021/12/04 08:27:59;;;;;;;6.72;1.80;;;;;;;;;;5051296;28;20128;-71
2021/12/04 08:30:29;;;;;;;7.68;0.95;;;;;;;;;;5059933;28;20040;-71
2021/12/04 08:32:56;;;;;;;8.95;1.20;;;;;;;;;;5051716;28;20036;-73
2021/12/04 08:35:24;;;;;;;8.35;2.20;;;;;;;;;;5051792;28;20059;-65
2021/12/04 08:37:50;;;;;;;8.88;1.30;;;;;;;;;;5042287;28;20029;-66
2021/12/04 08:40:17;;;;;;;10.80;1.27;;;;;;;;;;5031506;28;20474;-69
2021/12/04 08:42:44;;;;;;;7.43;1.23;;;;;;;;;;5031298;28;20037;-64
2021/12/04 08:45:11;;;;;;;11.27;1.83;;;;;;;;;;5031697;28;20123;-66
2021/12/04 08:47:38;;;;;;;12.40;2.15;;;;;;;;;;5031317;28;20034;-69
2021/12/04 08:50:05;;;;;;;7.03;1.45;;;;;;;;;;5031909;28;20029;-70
2021/12/04 08:52:31;;;;;;;8.10;1.05;;;;;;;;;;5031547;28;20033;-66
2021/12/04 08:54:57;;;;;;;6.47;1.33;;;;;;;;;;5035320;28;20022;-68
2021/12/04 08:57:23;;;;;;;5.93;1.58;;;;;;;;;;5035711;28;20466;-72
2021/12/04 08:59:50;;;;;;;9.35;1.20;;;;;;;;;;5052203;28;20044;-69
2021/12/04 09:02:17;;;;;;;8.90;1.92;;;;;;;;;;5055005;28;20083;-68
2021/12/04 09:04:46;;;;;;;6.65;1.45;;;;;;;;;;5054741;28;20033;-67
2021/12/04 09:07:12;;;;;;;9.80;1.60;;;;;;;;;;5054910;28;20021;-68
2021/12/04 09:09:38;;;;;;;5.30;0.90;;;;;;;;;;5052435;28;20539;-69
2021/12/04 09:12:06;;;;;;;8.18;1.73;;;;;;;;;;5055740;28;20020;-68
2021/12/04 09:14:33;;;;;;;7.60;1.08;;;;;;;;;;5054532;28;20059;-67
2021/12/04 09:17:00;;;;;;;11.48;1.77;;;;;;;;;;5055164;28;20021;-72
2021/12/04 09:19:26;;;;;;;5.00;1.05;;;;;;;;;;5054762;28;20029;-72
2021/12/04 09:21:53;;;;;;;4.28;1.35;;;;;;;;;;5054066;28;20489;-65
2021/12/04 09:24:37;;;;;;;3.80;0.98;;;;;;;;;;5038094;28;20026;-67
2021/12/04 09:40:28;;;;;;;10.07;1.52;;;;;;;;;;5039789;28;20029;-65
2021/12/04 10:05:14;;;;;;;8.13;1.50;;;;;;;;;;5053506;28;20037;-63
2021/12/04 10:21:36;;;;;;;8.50;2.00;;;;;;;;;;5033876;28;20057;-63
2021/12/04 10:32:31;;;;;;;3.30;1.63;;;;;;;;;;5033890;28;20191;-64
2021/12/04 10:34:57;;;;;;;7.60;1.45;;;;;;;;;;5033519;28;20033;-71
2021/12/04 10:37:26;;;;;;;4.10;1.08;;;;;;;;;;5033375;28;20029;-62
2021/12/04 10:39:53;;;;;;;3.13;1.63;;;;;;;;;;5033052;28;20155;-70
2021/12/04 10:42:39;;;;;;;4.03;1.17;;;;;;;;;;5033760;28;20028;-73
2021/12/04 10:45:05;;;;;;;4.55;1.40;;;;;;;;;;5033250;28;20132;-71
2021/12/04 10:47:31;;;;;;;5.07;1.38;;;;;;;;;;5033605;28;20025;-64
2021/12/04 10:52:58;;;;;;;4.03;1.05;;;;;;;;;;5032883;28;20034;-70
2021/12/04 10:55:32;;;;;;;2.25;1.30;;;;;;;;;;5033263;28;20018;-64
2021/12/04 11:38:43;;;;;;;2.15;0.75;;;;;;;;;;5052736;28;20052;-69
2021/12/04 11:44:10;;;;;;;2.38;0.65;;;;;;;;;;5051641;28;20071;-69
2021/12/04 11:46:43;;;;;;;1.30;0.73;;;;;;;;;;5051232;28;20033;-68
2021/12/04 11:49:12;;;;;;;2.55;0.70;;;;;;;;;;5052294;28;20055;-69
2021/12/04 11:51:45;;;;;;;2.15;0.95;;;;;;;;;;5051731;28;20021;-67
2021/12/04 11:54:12;;;;;;;4.70;1.20;;;;;;;;;;5052764;28;20021;-71
2021/12/04 11:56:38;;;;;;;2.15;0.93;;;;;;;;;;5051651;28;20025;-69
2021/12/04 11:59:04;;;;;;;2.50;0.80;;;;;;;;;;5040884;28;20025;-69
2021/12/04 12:01:32;;;;;;;1.38;0.73;;;;;;;;;;5032212;28;20429;-69
2021/12/04 12:04:00;;;;;;;3.10;1.13;;;;;;;;;;5031635;28;20378;-69
2021/12/04 12:06:37;;;;;;;2.72;1.02;;;;;;;;;;5032043;28;20466;-71
2021/12/04 12:09:05;;;;;;;1.05;0.70;;;;;;;;;;5032236;28;20084;-70
2021/12/04 12:11:31;;;;;;;1.15;0.65;;;;;;;;;;5032206;28;20036;-70
2021/12/04 12:13:59;;;;;;;2.33;1.10;;;;;;;;;;5031587;28;20021;-70
2021/12/04 12:16:32;;;;;;;2.92;0.77;;;;;;;;;;5030433;28;20032;-69
2021/12/04 12:18:59;;;;;;;2.67;0.93;;;;;;;;;;5031569;28;20037;-70
2021/12/04 12:21:31;;;;;;;3.63;1.17;;;;;;;;;;5031962;28;20034;-70
2021/12/04 12:27:16;;;;;;;2.50;1.20;;;;;;;;;;5031307;28;20019;-70
2021/12/04 12:32:37;;;;;;;3.72;1.20;;;;;;;;;;5035771;28;20072;-71
2021/12/04 12:37:48;;;;;;;2.28;1.00;;;;;;;;;;5035412;28;20430;-70
2021/12/04 12:40:16;;;;;;;3.95;1.52;;;;;;;;;;5036064;28;20037;-71
2021/12/04 12:42:43;;;;;;;3.80;1.45;;;;;;;;;;5035117;28;20026;-72
2021/12/04 12:45:23;;;;;;;1.63;1.20;;;;;;;;;;5042710;28;20472;-72
2021/12/04 12:47:53;;;;;;;5.53;2.25;;;;;;;;;;5055004;28;20396;-72
2021/12/04 12:50:26;;;;;;;3.17;1.27;;;;;;;;;;5055538;28;20029;-72
2021/12/04 12:53:00;;;;;;;2.03;0.90;;;;;;;;;;5054939;28;20037;-72
2021/12/04 12:55:31;;;;;;;2.70;0.88;;;;;;;;;;5055594;28;20020;-72
2021/12/04 12:57:58;;;;;;;1.95;1.13;;;;;;;;;;5054998;28;20029;-73
2021/12/04 13:14:19;;;;;;;2.17;0.85;;;;;;;;;;5055309;28;20163;-69
2021/12/04 13:16:46;;;;;;;;;;;;;;;;;;5034662;28;20025;-68
2021/12/04 13:19:14;;;;;;;1.35;0.88;;;;;;;;;;5035064;28;19913;-68
2021/12/04 13:21:42;;;;;;;1.77;0.60;;;;;;;;;;5034329;28;20029;-68
2021/12/04 13:24:10;;;;;;;2.17;0.80;;;;;;;;;;5035247;28;20474;-69
2021/12/04 13:26:37;;;;;;;1.63;0.60;;;;;;;;;;5034830;28;20474;-68
2021/12/04 13:29:05;;;;;;;2.90;1.20;;;;;;;;;;5034655;28;20024;-68
2021/12/04 13:31:32;;;;;;;1.70;0.73;;;;;;;;;;5034402;28;20108;-67
2021/12/04 13:33:58;;;;;;;1.25;0.65;;;;;;;;;;5034043;28;20226;-68
2021/12/04 13:36:28;;;;;;;1.38;0.60;;;;;;;;;;5034102;28;20048;-67
2021/12/04 13:39:04;;;;;;;1.30;0.68;;;;;;;;;;5034054;28;20063;-68
2021/12/04 13:41:31;;;;;;;1.05;0.80;;;;;;;;;;5033999;28;20108;-69
2021/12/04 13:43:59;;;;;;;1.15;0.50;;;;;;;;;;5033463;28;20494;-67
2021/12/04 13:46:26;;;;;;;1.20;0.60;;;;;;;;;;5034037;28;20046;-67
2021/12/04 13:48:58;;;;;;;1.33;0.50;;;;;;;;;;5034002;28;20025;-68
2021/12/04 13:51:24;;;;;;;1.75;0.55;;;;;;;;;;5034536;28;20033;-68
2021/12/04 13:53:52;;;;;;;1.25;0.77;;;;;;;;;;5033149;28;20025;-67
2021/12/04 13:56:19;;;;;;;0.93;0.63;;;;;;;;;;5033880;28;20509;-62
2021/12/04 13:58:52;;;;;;;1.50;0.65;;;;;;;;;;5033641;28;20014;-66
2021/12/04 14:01:19;;;;;;;2.97;1.02;;;;;;;;;;5034421;28;20064;-69
2021/12/04 14:03:47;;;;;;;7.20;0.63;;;;;;;;;;5033462;28;20029;-62
2021/12/04 14:06:14;;;;;;;2.42;0.90;;;;;;;;;;5033916;28;20029;-73
2021/12/04 14:08:40;;;;;;;5.95;0.80;;;;;;;;;;5033392;28;20030;-58
2021/12/04 14:11:06;;;;;;;5.68;1.50;;;;;;;;;;5033941;28;20037;-56
2021/12/04 14:13:33;;;;;;;7.38;1.67;;;;;;;;;;5050202;28;20078;-65
2021/12/04 14:15:59;;;;;;;8.52;1.35;;;;;;;;;;5053318;28;20104;-59
2021/12/04 14:18:26;;;;;;;5.47;0.95;;;;;;;;;;5053876;28;20052;-59
2021/12/04 14:20:54;;;;;;;4.70;0.80;;;;;;;;;;5044075;28;20025;-53
2021/12/04 14:23:23;;;;;;;6.60;1.10;;;;;;;;;;5042780;28;20407;-60
2021/12/04 14:25:54;;;;;;;3.90;1.33;;;;;;;;;;5041731;28;20021;-58
2021/12/04 14:28:20;;;;;;;5.25;1.30;;;;;;;;;;5037419;28;20677;-57
2021/12/04 14:30:47;;;;;;;2.63;0.77;;;;;;;;;;5044491;28;20057;-57
2021/12/04 14:33:17;;;;;;;3.42;1.67;;;;;;;;;;5044930;28;20021;-58
2021/12/04 14:35:45;;;;;;;4.60;1.20;;;;;;;;;;5043674;28;20025;-59
2021/12/04 14:38:13;;;;;;;4.57;1.13;;;;;;;;;;5042213;28;20021;-59
2021/12/04 14:40:41;;;;;;;4.63;1.10;;;;;;;;;;5048441;28;20029;-58
2021/12/04 14:43:10;;;;;;;3.47;0.80;;;;;;;;;;5050173;28;20043;-57
2021/12/04 14:45:38;;;;;;;4.57;0.80;;;;;;;;;;5052779;28;20044;-59
2021/12/04 14:48:06;;;;;;;7.40;0.95;;;;;;;;;;5052304;28;20749;-56
2021/12/04 14:50:33;;;;;;;6.03;1.02;;;;;;;;;;5053234;28;20036;-58
2021/12/04 14:53:02;;;;;;;4.55;1.15;;;;;;;;;;5052380;28;20025;-59
2021/12/04 14:55:32;;;;;;;5.78;1.05;;;;;;;;;;5047341;28;20044;-59
2021/12/04 14:57:59;;;;;;;6.90;1.27;;;;;;;;;;5041412;28;20025;-59
2021/12/04 15:00:27;;;;;;;8.05;1.17;;;;;;;;;;5043492;28;20025;-58
2021/12/04 15:02:58;;;;;;;7.40;2.08;;;;;;;;;;5042210;28;20029;-58
2021/12/04 15:05:29;;;;;;;4.03;1.13;;;;;;;;;;5042252;28;20018;-58
2021/12/04 15:08:01;;;;;;;4.95;0.90;;;;;;;;;;5040530;28;20413;-58
2021/12/04 15:10:27;;;;;;;3.00;0.80;;;;;;;;;;5042150;28;20024;-59
2021/12/04 15:12:57;;;;;;;2.38;1.08;;;;;;;;;;5042857;28;20013;-55
2021/12/04 15:15:23;;;;;;;6.65;0.93;;;;;;;;;;5031369;28;20047;-58
2021/12/04 15:17:53;;;;;;;3.75;0.90;;;;;;;;;;5038884;28;20501;-56
2021/12/04 15:20:27;;;;;;;6.97;1.00;;;;;;;;;;5049916;28;20478;-62
2021/12/04 15:22:57;;;;;;;7.47;1.48;;;;;;;;;;5052035;28;20025;-62
2021/12/04 15:25:26;;;;;;;6.53;0.88;;;;;;;;;;5048442;28;20474;-62
2021/12/04 15:27:52;;;;;;;5.97;1.10;;;;;;;;;;5040621;28;20030;-59
2021/12/04 15:30:18;;;;;;;7.35;1.15;;;;;;;;;;5042211;28;20021;-58
2021/12/04 15:32:45;;;;;;;3.45;0.82;;;;;;;;;;5042974;28;20116;-53
2021/12/04 15:37:59;;;;;;;3.17;0.77;;;;;;;;;;5032142;28;20367;-58
2021/12/04 15:40:47;;;;;;;4.28;0.77;;;;;;;;;;5035047;28;20029;-59
2021/12/04 15:43:22;;;;;;;8.30;0.98;;;;;;;;;;5042829;28;20024;-57
2021/12/04 15:46:02;;;;;;;5.97;0.90;;;;;;;;;;5041786;28;20120;-59
2021/12/04 15:48:43;;;;;;;5.63;0.90;;;;;;;;;;5044347;28;20028;-59
2021/12/04 15:52:45;;;;;;;2.97;0.80;;;;;;;;;;5037063;28;20119;-58
2021/12/04 15:54:07;;;;;;;4.00;0.90;;;;;;;;;;5029438;28;20034;-59
2021/12/04 15:56:37;;;;;;;3.13;0.57;;;;;;;;;;5031906;28;20486;-58
2021/12/04 15:59:05;;;;;;;1.63;0.85;;;;;;;;;;5042354;28;20029;-59
2021/12/04 16:01:31;;;;;;;3.10;0.88;;;;;;;;;;5052054;28;20453;-59
2021/12/04 16:03:58;;;;;;;1.85;0.93;;;;;;;;;;5050901;28;20479;-59
2021/12/04 16:06:36;;;;;;;3.00;0.68;;;;;;;;;;5052158;28;20047;-59
2021/12/04 16:09:02;;;;;;;18.02;1.75;;;;;;;;;;5051415;28;20035;-59
2021/12/04 16:11:35;;;;;;;2.40;0.70;;;;;;;;;;5051944;28;20025;-59
2021/12/04 16:14:03;;;;;;;5.40;0.70;;;;;;;;;;5051570;28;20026;-59
2021/12/04 16:16:32;;;;;;;1.42;0.50;;;;;;;;;;5033164;28;20040;-59
2021/12/04 16:18:58;;;;;;;7.45;0.75;;;;;;;;;;5031300;28;20057;-58
2021/12/04 16:21:25;;;;;;;2.78;1.02;;;;;;;;;;5031951;28;20021;-58
2021/12/04 16:23:53;;;;;;;3.60;0.50;;;;;;;;;;5031203;28;20100;-58
2021/12/04 16:26:22;;;;;;;1.77;0.95;;;;;;;;;;5032015;28;20021;-59
2021/12/04 16:31:39;;;;;;;1.38;0.60;;;;;;;;;;5031673;28;20030;-58
2021/12/04 16:36:55;;;;;;;1.05;0.57;;;;;;;;;;5031907;28;20095;-56
2021/12/04 16:39:21;;;;;;;1.80;0.65;;;;;;;;;;5030996;28;20499;-57
2021/12/04 16:41:53;;;;;;;2.65;0.57;;;;;;;;;;5031026;28;20033;-58
2021/12/04 16:44:19;;;;;;;0.95;0.45;;;;;;;;;;5031418;28;20043;-56
2021/12/04 16:46:47;;;;;;;1.45;0.60;;;;;;;;;;5050257;28;20030;-54
2021/12/04 16:49:13;;;;;;;2.72;0.80;;;;;;;;;;5051598;28;20025;-55
2021/12/04 16:57:32;;;;;;;1.45;0.90;;;;;;;;;;5041573;28;20040;-61
2021/12/04 16:59:58;;;;;;;2.47;0.88;;;;;;;;;;5039487;28;20366;-62
2021/12/04 17:02:25;;;;;;;4.47;1.63;;;;;;;;;;5044505;28;20037;-63
2021/12/04 17:04:51;;;;;;;2.17;0.90;;;;;;;;;;5050520;28;20026;-67
2021/12/04 17:07:20;;;;;;;3.08;0.63;;;;;;;;;;5051596;28;20044;-62
2021/12/04 17:09:46;;;;;;;3.53;0.60;;;;;;;;;;5050899;28;20487;-62
2021/12/04 17:12:12;;;;;;;3.88;0.93;;;;;;;;;;5051300;28;20080;-63
2021/12/04 17:14:38;;;;;;;3.88;0.80;;;;;;;;;;5050921;28;20104;-51
2021/12/04 17:17:05;;;;;;;2.70;0.93;;;;;;;;;;5053581;28;20037;-49
2021/12/04 17:19:31;;;;;;;4.55;1.15;;;;;;;;;;5054984;28;20060;-70
2021/12/04 17:21:58;;;;;;;4.10;1.50;;;;;;;;;;5053787;28;20107;-60
2021/12/04 17:24:28;;;;;;;2.08;0.85;;;;;;;;;;5054850;28;20025;-60
2021/12/04 17:26:54;;;;;;;3.90;0.90;;;;;;;;;;5047629;28;20029;-58
2021/12/04 17:29:22;;;;;;;6.65;0.98;;;;;;;;;;5043544;28;20024;-56
2021/12/04 17:31:49;;;;;;;2.65;0.77;;;;;;;;;;5043160;28;20009;-63
2021/12/04 17:34:16;;;;;;;3.83;1.00;;;;;;;;;;5045172;28;20048;-60
2021/12/04 17:36:42;;;;;;;1.70;0.57;;;;;;;;;;5036300;28;20026;-59
2021/12/04 17:39:09;;;;;;;1.40;0.70;;;;;;;;;;5046561;28;20021;-58
2021/12/04 17:41:36;;;;;;;3.20;0.85;;;;;;;;;;5043405;28;20037;-60
2021/12/04 17:44:03;;;;;;;3.30;0.93;;;;;;;;;;5043915;28;20095;-54
2021/12/04 17:46:30;;;;;;;5.47;1.48;;;;;;;;;;5044286;28;20582;-53
2021/12/04 17:48:56;;;;;;;2.80;0.85;;;;;;;;;;5042158;28;20022;-57
2021/12/04 17:51:23;;;;;;;3.70;1.13;;;;;;;;;;5044204;28;20051;-54
2021/12/04 17:53:53;;;;;;;2.92;0.80;;;;;;;;;;5043691;28;20339;-46
2021/12/04 17:56:19;;;;;;;2.47;0.70;;;;;;;;;;5045432;28;20044;-50
2021/12/04 17:58:45;;;;;;;2.42;1.10;;;;;;;;;;5045474;28;20083;-50
2021/12/04 18:01:14;;;;;;;2.35;1.10;;;;;;;;;;5033367;28;20026;-45
2021/12/04 18:03:43;;;;;;;2.88;0.90;;;;;;;;;;5034135;28;20083;-64
2021/12/04 18:06:12;;;;;;;1.42;0.60;;;;;;;;;;5041269;28;20026;-61
2021/12/04 18:08:41;;;;;;;3.90;1.05;;;;;;;;;;5033968;28;20053;-59
2021/12/04 18:11:09;;;;;;;2.05;0.70;;;;;;;;;;5033355;28;20037;-65